Time;durP1;ratioP1;P1;durP2;ratioP2;P2;SDS_P1;SDS_P2;PMS_P1;PMS_P2;Temp;Humidity;BMP_temperature;BMP_pressure;BME280_temperature;BME280_humidity;BME280_pressure;Samples;Min_cycle;Max_cycle;Signal;HPM_P1;HPM_P2
2022/03/23 00:00:52;;;;;;;31.83;17.17;;;;;;;;;;5050551;28;20282;-68
2022/03/23 00:03:18;;;;;;;27.10;17.40;;;;;;;;;;5050026;28;20174;-68
2022/03/23 00:05:44;;;;;;;28.47;17.87;;;;;;;;;;5050157;28;20170;-67
2022/03/23 00:08:09;;;;;;;31.80;17.57;;;;;;;;;;5048829;28;20202;-68
2022/03/23 00:10:35;;;;;;;27.93;16.87;;;;;;;;;;5049763;28;20546;-67
2022/03/23 00:13:00;;;;;;;27.60;17.13;;;;;;;;;;5048580;28;20178;-68
2022/03/23 00:15:27;;;;;;;26.37;16.63;;;;;;;;;;5042298;28;20186;-67
2022/03/23 00:17:53;;;;;;;36.57;18.10;;;;;;;;;;5047828;28;20202;-67
2022/03/23 00:20:18;;;;;;;29.30;17.20;;;;;;;;;;5050437;28;20554;-66
2022/03/23 00:22:43;;;;;;;27.10;15.93;;;;;;;;;;5046164;28;20224;-66
2022/03/23 00:25:08;;;;;;;30.37;17.33;;;;;;;;;;5045572;28;20180;-66
2022/03/23 00:27:34;;;;;;;29.43;18.57;;;;;;;;;;5050937;28;20193;-65
2022/03/23 00:29:59;;;;;;;26.90;16.27;;;;;;;;;;5052684;28;20185;-66
2022/03/23 00:32:24;;;;;;;28.67;17.20;;;;;;;;;;5054130;28;20178;-66
2022/03/23 00:34:49;;;;;;;31.40;18.40;;;;;;;;;;5050617;28;20201;-66
2022/03/23 00:37:15;;;;;;;31.70;18.13;;;;;;;;;;5053558;28;20663;-66
2022/03/23 00:39:40;;;;;;;29.93;17.23;;;;;;;;;;5052799;28;20217;-67
2022/03/23 00:42:05;;;;;;;31.60;18.10;;;;;;;;;;5052594;28;20646;-67
2022/03/23 00:44:31;;;;;;;30.57;18.27;;;;;;;;;;5050682;28;20328;-64
2022/03/23 00:46:56;;;;;;;28.83;18.80;;;;;;;;;;5043234;28;20209;-68
2022/03/23 00:49:21;;;;;;;31.87;18.63;;;;;;;;;;5035020;28;20861;-65
2022/03/23 00:51:46;;;;;;;32.87;17.57;;;;;;;;;;5050718;28;20181;-66
2022/03/23 00:54:12;;;;;;;30.50;18.07;;;;;;;;;;5051942;28;20189;-66
2022/03/23 00:56:37;;;;;;;31.93;17.33;;;;;;;;;;5053219;28;20775;-67
2022/03/23 00:59:03;;;;;;;30.57;18.47;;;;;;;;;;5051405;28;20181;-67
2022/03/23 01:01:29;;;;;;;30.77;17.80;;;;;;;;;;5051339;28;20556;-66
2022/03/23 01:03:54;;;;;;;27.03;18.07;;;;;;;;;;5038029;28;20177;-66
2022/03/23 01:06:19;;;;;;;29.03;17.43;;;;;;;;;;5046705;28;20185;-66
2022/03/23 01:08:44;;;;;;;25.97;16.93;;;;;;;;;;5053452;28;20219;-66
2022/03/23 01:11:10;;;;;;;30.47;17.97;;;;;;;;;;5051267;28;20178;-66
2022/03/23 01:13:35;;;;;;;33.17;17.80;;;;;;;;;;5044214;28;20174;-66
2022/03/23 01:16:01;;;;;;;29.53;17.40;;;;;;;;;;5043764;28;20188;-69
2022/03/23 01:18:26;;;;;;;26.50;17.90;;;;;;;;;;5045772;28;20576;-66
2022/03/23 01:20:52;;;;;;;32.03;18.53;;;;;;;;;;5052773;28;20178;-65
2022/03/23 01:23:17;;;;;;;27.90;17.97;;;;;;;;;;5043181;28;20189;-65
2022/03/23 01:25:42;;;;;;;34.07;18.77;;;;;;;;;;5048506;28;20173;-66
2022/03/23 01:28:09;;;;;;;29.97;18.43;;;;;;;;;;5059580;28;20616;-66
2022/03/23 01:30:34;;;;;;;28.30;17.30;;;;;;;;;;5047032;28;20194;-66
2022/03/23 01:32:59;;;;;;;29.17;17.20;;;;;;;;;;5045676;28;20548;-67
2022/03/23 01:35:25;;;;;;;24.27;16.83;;;;;;;;;;5049561;28;20186;-66
2022/03/23 01:37:50;;;;;;;24.60;16.57;;;;;;;;;;5047442;28;20213;-66
2022/03/23 01:40:16;;;;;;;25.00;15.93;;;;;;;;;;5049031;28;20257;-67
2022/03/23 01:42:42;;;;;;;28.47;18.20;;;;;;;;;;5049647;28;20177;-66
2022/03/23 01:45:08;;;;;;;30.97;17.37;;;;;;;;;;5051077;28;20181;-66
2022/03/23 01:47:34;;;;;;;28.17;17.17;;;;;;;;;;5050875;28;20613;-67
2022/03/23 01:49:59;;;;;;;35.73;17.77;;;;;;;;;;5045807;28;20186;-67
2022/03/23 01:52:25;;;;;;;26.73;17.63;;;;;;;;;;5044494;28;20272;-67
2022/03/23 01:54:51;;;;;;;30.77;19.00;;;;;;;;;;5044108;28;20181;-67
2022/03/23 01:57:17;;;;;;;31.93;18.60;;;;;;;;;;5050751;28;20275;-66
2022/03/23 01:59:42;;;;;;;29.47;17.40;;;;;;;;;;5050358;28;20269;-66
2022/03/23 02:02:10;;;;;;;27.60;17.87;;;;;;;;;;5051408;28;20579;-66
2022/03/23 02:04:36;;;;;;;32.90;18.50;;;;;;;;;;5036240;28;20178;-67
2022/03/23 02:07:03;;;;;;;31.37;18.07;;;;;;;;;;5045651;28;20258;-67
2022/03/23 02:09:28;;;;;;;31.80;19.20;;;;;;;;;;5050909;28;20181;-67
2022/03/23 02:11:54;;;;;;;33.67;17.67;;;;;;;;;;5051561;28;20647;-67
2022/03/23 02:14:19;;;;;;;26.77;17.03;;;;;;;;;;5050455;28;20738;-66
2022/03/23 02:16:45;;;;;;;27.80;17.97;;;;;;;;;;5050094;28;20232;-67
2022/03/23 02:19:11;;;;;;;28.23;19.07;;;;;;;;;;5050501;28;20173;-67
2022/03/23 02:21:36;;;;;;;29.97;18.10;;;;;;;;;;5050458;28;20246;-67
2022/03/23 02:24:02;;;;;;;26.80;16.83;;;;;;;;;;5047782;28;20193;-66
2022/03/23 02:26:28;;;;;;;28.17;18.87;;;;;;;;;;5056743;28;20221;-67
2022/03/23 02:28:54;;;;;;;26.07;17.47;;;;;;;;;;5050840;28;20647;-66
2022/03/23 02:31:19;;;;;;;32.17;18.73;;;;;;;;;;5051192;28;20251;-66
2022/03/23 02:33:45;;;;;;;30.90;18.70;;;;;;;;;;5048206;28;20224;-66
2022/03/23 02:36:10;;;;;;;27.23;18.17;;;;;;;;;;5049789;28;20647;-67
2022/03/23 02:38:35;;;;;;;28.70;18.20;;;;;;;;;;5063599;22;20236;-70
2022/03/23 02:41:01;;;;;;;26.10;17.77;;;;;;;;;;5050504;28;20634;-70
2022/03/23 02:43:26;;;;;;;29.67;18.00;;;;;;;;;;5051463;28;20178;-68
2022/03/23 02:45:51;;;;;;;30.07;18.47;;;;;;;;;;5050502;28;20733;-71
2022/03/23 02:48:16;;;;;;;28.73;17.97;;;;;;;;;;5049946;28;20279;-68
2022/03/23 02:50:41;;;;;;;31.00;18.17;;;;;;;;;;5051697;28;20181;-68
2022/03/23 03:01:52;;;;;;;25.13;17.40;;;;;;;;;;5048759;28;20207;-69
2022/03/23 03:04:17;;;;;;;31.67;18.03;;;;;;;;;;5048567;28;20174;-68
2022/03/23 03:06:42;;;;;;;32.90;19.17;;;;;;;;;;5047790;28;20535;-68
2022/03/23 03:09:08;;;;;;;27.97;17.60;;;;;;;;;;5049373;28;20197;-68
2022/03/23 03:11:33;;;;;;;33.80;18.57;;;;;;;;;;5048084;28;20212;-69
2022/03/23 03:13:58;;;;;;;27.30;17.93;;;;;;;;;;5050275;28;20220;-69
2022/03/23 03:16:23;;;;;;;28.00;18.10;;;;;;;;;;5051743;28;20694;-68
2022/03/23 03:18:49;;;;;;;28.10;17.50;;;;;;;;;;5051540;28;20197;-69
2022/03/23 03:21:15;;;;;;;31.97;18.77;;;;;;;;;;5047120;28;20170;-69
2022/03/23 03:23:43;;;;;;;25.97;16.87;;;;;;;;;;5051618;28;20157;-68
2022/03/23 03:26:10;;;;;;;29.33;18.93;;;;;;;;;;5045152;28;20194;-69
2022/03/23 03:28:36;;;;;;;29.77;18.73;;;;;;;;;;5045469;28;20208;-69
2022/03/23 03:31:05;;;;;;;34.00;18.07;;;;;;;;;;5040270;28;20659;-69
2022/03/23 03:33:31;;;;;;;30.13;19.30;;;;;;;;;;5042476;28;20193;-68
2022/03/23 03:35:56;;;;;;;35.03;19.23;;;;;;;;;;5046365;28;20174;-69
2022/03/23 03:38:21;;;;;;;32.23;19.80;;;;;;;;;;5050539;28;20263;-68
2022/03/23 03:40:46;;;;;;;26.80;17.30;;;;;;;;;;5047774;28;20185;-69
2022/03/23 03:43:12;;;;;;;30.30;18.63;;;;;;;;;;5045635;28;20232;-69
2022/03/23 03:45:37;;;;;;;27.80;19.13;;;;;;;;;;5049142;28;20181;-68
2022/03/23 03:48:02;;;;;;;29.77;18.43;;;;;;;;;;5048115;28;20694;-69
2022/03/23 03:50:28;;;;;;;35.33;18.97;;;;;;;;;;5049324;28;20234;-69
2022/03/23 03:52:54;;;;;;;30.00;18.57;;;;;;;;;;5051268;28;20252;-69
2022/03/23 03:55:19;;;;;;;28.70;18.17;;;;;;;;;;5042152;28;20577;-68
2022/03/23 03:57:44;;;;;;;26.07;17.90;;;;;;;;;;5038665;28;20201;-71
2022/03/23 04:00:11;;;;;;;30.33;18.43;;;;;;;;;;5042372;28;20559;-68
2022/03/23 04:02:36;;;;;;;34.70;19.77;;;;;;;;;;5046790;28;20176;-69
2022/03/23 04:05:01;;;;;;;34.87;19.50;;;;;;;;;;5048755;28;20170;-69
2022/03/23 04:07:26;;;;;;;31.20;17.97;;;;;;;;;;5048797;28;20284;-68
2022/03/23 04:09:52;;;;;;;32.60;19.60;;;;;;;;;;5042594;28;20537;-68
2022/03/23 04:12:17;;;;;;;32.93;19.67;;;;;;;;;;5044774;28;20651;-69
2022/03/23 04:14:42;;;;;;;30.97;19.33;;;;;;;;;;5047899;28;20184;-69
2022/03/23 04:17:07;;;;;;;31.20;19.50;;;;;;;;;;5042972;28;20214;-68
2022/03/23 04:19:32;;;;;;;28.47;18.87;;;;;;;;;;5050903;28;20265;-69
2022/03/23 04:21:58;;;;;;;29.43;18.33;;;;;;;;;;5050098;28;20186;-69
2022/03/23 04:24:23;;;;;;;29.87;19.30;;;;;;;;;;5041343;28;20244;-69
2022/03/23 04:26:48;;;;;;;29.03;18.90;;;;;;;;;;5049145;28;20181;-69
2022/03/23 04:29:13;;;;;;;29.33;18.53;;;;;;;;;;5041917;28;20461;-69
2022/03/23 04:31:38;;;;;;;29.13;18.27;;;;;;;;;;5050411;28;20177;-69
2022/03/23 04:34:03;;;;;;;29.67;19.63;;;;;;;;;;5048463;28;20186;-69
2022/03/23 04:36:29;;;;;;;31.73;20.23;;;;;;;;;;5045804;28;20698;-69
2022/03/23 04:38:54;;;;;;;30.67;19.00;;;;;;;;;;5046524;28;20206;-69
2022/03/23 04:41:19;;;;;;;29.10;18.67;;;;;;;;;;5047582;28;20181;-69
2022/03/23 04:43:44;;;;;;;29.00;19.70;;;;;;;;;;5045533;28;20384;-69
2022/03/23 04:46:10;;;;;;;28.70;18.80;;;;;;;;;;5050172;28;20570;-68
2022/03/23 04:48:35;;;;;;;32.70;18.67;;;;;;;;;;5048177;28;20571;-69
2022/03/23 04:51:00;;;;;;;31.13;18.97;;;;;;;;;;5049691;28;20265;-69
2022/03/23 04:53:26;;;;;;;32.57;19.20;;;;;;;;;;5048886;28;20185;-69
2022/03/23 04:55:51;;;;;;;31.00;19.33;;;;;;;;;;5035347;28;20860;-68
2022/03/23 04:58:16;;;;;;;31.03;18.63;;;;;;;;;;5039507;28;20209;-68
2022/03/23 05:00:41;;;;;;;33.43;19.40;;;;;;;;;;5042858;28;20180;-70
2022/03/23 05:03:07;;;;;;;32.30;17.87;;;;;;;;;;5041638;28;20177;-69
2022/03/23 05:05:32;;;;;;;30.77;18.70;;;;;;;;;;5049079;28;20173;-70
2022/03/23 05:07:57;;;;;;;30.77;18.93;;;;;;;;;;5046078;28;20607;-69
2022/03/23 05:10:23;;;;;;;32.87;19.43;;;;;;;;;;5055173;28;20216;-70
2022/03/23 05:12:48;;;;;;;34.23;19.73;;;;;;;;;;5049745;28;20252;-69
2022/03/23 05:15:14;;;;;;;30.10;19.53;;;;;;;;;;5056529;28;20205;-69
2022/03/23 05:17:40;;;;;;;29.93;18.80;;;;;;;;;;5053887;28;20297;-69
2022/03/23 05:20:06;;;;;;;34.97;19.23;;;;;;;;;;5059000;28;20197;-69
2022/03/23 05:22:32;;;;;;;35.60;20.00;;;;;;;;;;5052868;28;20311;-70
2022/03/23 05:24:57;;;;;;;35.33;20.93;;;;;;;;;;5058374;28;20193;-70
2022/03/23 05:27:23;;;;;;;35.83;20.30;;;;;;;;;;5058528;28;20202;-70
2022/03/23 05:29:48;;;;;;;29.97;18.77;;;;;;;;;;5052232;28;20182;-69
2022/03/23 05:32:18;;;;;;;31.13;18.70;;;;;;;;;;5051417;28;20174;-69
2022/03/23 05:34:44;;;;;;;31.50;19.73;;;;;;;;;;5045868;28;20181;-70
2022/03/23 05:37:11;;;;;;;37.17;20.10;;;;;;;;;;5052839;28;20699;-70
2022/03/23 05:39:36;;;;;;;32.87;21.23;;;;;;;;;;5059174;28;20184;-69
2022/03/23 05:42:01;;;;;;;32.07;20.43;;;;;;;;;;5050689;28;20182;-69
2022/03/23 05:44:26;;;;;;;33.17;20.27;;;;;;;;;;5051671;28;20192;-70
2022/03/23 05:46:52;;;;;;;31.73;19.80;;;;;;;;;;5045367;28;20255;-69
2022/03/23 05:49:17;;;;;;;34.03;20.23;;;;;;;;;;5052422;28;20331;-69
2022/03/23 05:51:42;;;;;;;32.67;20.20;;;;;;;;;;5052835;28;20184;-69
2022/03/23 05:54:07;;;;;;;31.07;19.87;;;;;;;;;;5051754;28;20173;-67
2022/03/23 05:56:32;;;;;;;30.27;19.03;;;;;;;;;;5038134;28;20197;-69
2022/03/23 05:58:58;;;;;;;32.23;18.53;;;;;;;;;;5048051;28;20573;-70
2022/03/23 06:01:23;;;;;;;31.43;18.77;;;;;;;;;;5044855;28;20186;-68
2022/03/23 06:03:49;;;;;;;30.67;20.23;;;;;;;;;;5040397;28;20182;-69
2022/03/23 06:06:15;;;;;;;32.60;19.37;;;;;;;;;;5046454;28;20189;-69
2022/03/23 06:08:40;;;;;;;34.77;20.47;;;;;;;;;;5051683;28;20193;-69
2022/03/23 06:11:05;;;;;;;34.13;20.63;;;;;;;;;;5051493;28;20251;-69
2022/03/23 06:13:30;;;;;;;32.23;18.87;;;;;;;;;;5051462;28;20193;-68
2022/03/23 06:15:55;;;;;;;30.70;19.23;;;;;;;;;;5051816;28;20682;-69
2022/03/23 06:18:21;;;;;;;32.50;20.00;;;;;;;;;;5040433;28;20670;-69
2022/03/23 06:20:46;;;;;;;32.73;19.77;;;;;;;;;;5042784;28;20521;-68
2022/03/23 06:23:13;;;;;;;34.60;21.07;;;;;;;;;;5045540;28;20781;-69
2022/03/23 06:25:38;;;;;;;30.40;19.40;;;;;;;;;;5048479;28;20173;-69
2022/03/23 06:28:03;;;;;;;39.57;22.27;;;;;;;;;;5040431;28;20260;-69
2022/03/23 06:30:28;;;;;;;31.23;20.90;;;;;;;;;;5048201;28;20572;-69
2022/03/23 06:32:54;;;;;;;34.70;20.60;;;;;;;;;;5047003;28;20186;-69
2022/03/23 06:35:19;;;;;;;35.37;20.93;;;;;;;;;;5044853;28;20181;-69
2022/03/23 06:37:44;;;;;;;35.53;20.37;;;;;;;;;;5047926;28;20932;-69
2022/03/23 06:40:10;;;;;;;32.57;19.53;;;;;;;;;;5050701;28;20212;-70
2022/03/23 06:42:35;;;;;;;33.33;20.73;;;;;;;;;;5051065;28;20340;-69
2022/03/23 06:45:02;;;;;;;29.47;20.33;;;;;;;;;;5030592;28;20659;-68
2022/03/23 06:47:27;;;;;;;31.37;20.53;;;;;;;;;;5038521;28;20869;-70
2022/03/23 06:49:52;;;;;;;30.10;19.57;;;;;;;;;;5047499;28;20268;-70
2022/03/23 06:52:18;;;;;;;29.70;19.60;;;;;;;;;;5039249;28;20258;-70
2022/03/23 06:54:43;;;;;;;32.40;20.43;;;;;;;;;;5044159;28;20654;-68
2022/03/23 06:57:08;;;;;;;29.73;20.30;;;;;;;;;;5046587;28;20213;-70
2022/03/23 06:59:33;;;;;;;28.63;20.43;;;;;;;;;;5055036;28;20172;-69
2022/03/23 07:01:59;;;;;;;34.33;19.60;;;;;;;;;;5048416;28;20177;-70
2022/03/23 07:04:26;;;;;;;31.93;18.73;;;;;;;;;;5048885;28;20650;-71
2022/03/23 07:06:52;;;;;;;29.13;19.40;;;;;;;;;;5035955;28;20197;-69
2022/03/23 07:09:32;;;;;;;34.73;19.60;;;;;;;;;;5042240;28;20272;-68
2022/03/23 07:11:58;;;;;;;35.30;21.10;;;;;;;;;;5043032;28;20181;-69
2022/03/23 07:14:23;;;;;;;31.03;19.20;;;;;;;;;;5050245;28;20177;-70
2022/03/23 07:16:49;;;;;;;28.50;19.27;;;;;;;;;;5049230;28;20220;-68
2022/03/23 07:19:14;;;;;;;27.77;19.67;;;;;;;;;;5047769;28;20214;-72
2022/03/23 07:21:39;;;;;;;26.77;18.17;;;;;;;;;;5047662;28;20169;-68
2022/03/23 07:24:05;;;;;;;24.83;17.67;;;;;;;;;;5046900;28;20264;-69
2022/03/23 07:26:30;;;;;;;29.30;19.50;;;;;;;;;;5049719;28;20188;-69
2022/03/23 07:28:56;;;;;;;26.47;18.83;;;;;;;;;;5046820;28;20209;-69
2022/03/23 07:31:21;;;;;;;28.90;19.47;;;;;;;;;;5042990;28;20178;-69
2022/03/23 07:33:46;;;;;;;28.87;19.57;;;;;;;;;;5042942;28;20247;-69
2022/03/23 07:36:12;;;;;;;29.33;19.60;;;;;;;;;;5046858;28;20185;-69
2022/03/23 07:38:37;;;;;;;33.03;19.87;;;;;;;;;;5046948;28;20206;-68
2022/03/23 07:41:02;;;;;;;28.63;19.90;;;;;;;;;;5049862;28;20640;-68
2022/03/23 07:43:28;;;;;;;30.23;20.30;;;;;;;;;;5049393;28;20197;-68
2022/03/23 07:45:53;;;;;;;28.37;19.53;;;;;;;;;;5049390;28;20550;-68
2022/03/23 07:48:20;;;;;;;31.03;20.00;;;;;;;;;;5051094;28;20280;-68
2022/03/23 07:50:45;;;;;;;22.17;17.30;;;;;;;;;;5049951;28;20635;-68
2022/03/23 07:53:11;;;;;;;28.20;18.42;;;;;;;;;;5044616;28;20217;-69
2022/03/23 07:55:36;;;;;;;27.27;18.02;;;;;;;;;;5050562;28;20177;-70
2022/03/23 07:58:01;;;;;;;29.15;19.77;;;;;;;;;;5051637;28;20304;-70
2022/03/23 08:00:26;;;;;;;28.17;18.75;;;;;;;;;;5050833;28;20173;-70
2022/03/23 08:02:51;;;;;;;29.15;19.52;;;;;;;;;;5038590;28;20180;-70
2022/03/23 08:05:17;;;;;;;29.48;19.73;;;;;;;;;;5033563;28;20268;-68
2022/03/23 08:07:42;;;;;;;29.90;18.50;;;;;;;;;;5042643;28;20690;-68
2022/03/23 08:10:07;;;;;;;26.73;18.88;;;;;;;;;;5043139;28;20189;-68
2022/03/23 08:12:33;;;;;;;29.33;20.42;;;;;;;;;;5046166;28;20173;-69
2022/03/23 08:14:58;;;;;;;30.08;19.75;;;;;;;;;;5048256;28;20184;-68
2022/03/23 08:17:23;;;;;;;32.58;20.45;;;;;;;;;;5042016;28;20233;-68
2022/03/23 08:22:32;;;;;;;27.95;20.33;;;;;;;;;;5039512;28;20190;-68
2022/03/23 08:24:57;;;;;;;27.20;19.38;;;;;;;;;;5041813;28;20181;-68
2022/03/23 08:27:22;;;;;;;24.75;18.77;;;;;;;;;;5047407;28;20327;-68
2022/03/23 08:29:47;;;;;;;28.35;20.13;;;;;;;;;;5047533;28;20182;-68
2022/03/23 08:32:13;;;;;;;28.67;20.13;;;;;;;;;;5046751;28;20306;-68
2022/03/23 08:34:38;;;;;;;32.00;21.17;;;;;;;;;;5046100;28;20418;-68
2022/03/23 08:37:03;;;;;;;29.27;20.40;;;;;;;;;;5043203;28;20517;-68
2022/03/23 08:39:28;;;;;;;27.30;20.27;;;;;;;;;;5049085;28;20260;-69
2022/03/23 08:41:53;;;;;;;26.98;21.20;;;;;;;;;;5046613;28;20300;-68
2022/03/23 08:44:19;;;;;;;30.83;21.13;;;;;;;;;;5047706;28;20183;-68
2022/03/23 08:46:44;;;;;;;26.95;20.75;;;;;;;;;;5050188;28;20258;-68
2022/03/23 08:49:10;;;;;;;28.00;21.40;;;;;;;;;;5044248;28;20666;-68
2022/03/23 08:51:35;;;;;;;30.50;22.43;;;;;;;;;;5045894;28;20213;-68
2022/03/23 08:54:00;;;;;;;28.10;20.83;;;;;;;;;;5051401;28;20427;-68
2022/03/23 08:56:25;;;;;;;28.02;21.05;;;;;;;;;;5048491;28;20185;-68
2022/03/23 08:58:51;;;;;;;28.80;20.60;;;;;;;;;;5052693;28;20193;-68
2022/03/23 09:01:16;;;;;;;30.15;21.25;;;;;;;;;;5050261;28;20188;-69
2022/03/23 09:03:43;;;;;;;32.58;22.58;;;;;;;;;;5049155;28;20605;-67
2022/03/23 09:06:08;;;;;;;31.58;21.85;;;;;;;;;;5053305;28;20260;-68
2022/03/23 09:08:33;;;;;;;29.83;22.02;;;;;;;;;;5050334;28;22079;-70
2022/03/23 09:10:59;;;;;;;28.95;21.42;;;;;;;;;;5049560;28;20178;-68
2022/03/23 09:13:24;;;;;;;33.45;22.83;;;;;;;;;;5050398;28;20213;-68
2022/03/23 09:15:50;;;;;;;30.38;21.05;;;;;;;;;;5050777;28;20661;-68
2022/03/23 09:18:15;;;;;;;27.38;22.08;;;;;;;;;;5051835;28;20255;-68
2022/03/23 09:20:40;;;;;;;25.77;21.80;;;;;;;;;;5049607;28;20556;-68
2022/03/23 09:23:05;;;;;;;32.70;22.10;;;;;;;;;;5052622;28;20407;-68
2022/03/23 09:25:31;;;;;;;29.87;22.43;;;;;;;;;;5048994;28;20177;-68
2022/03/23 09:27:56;;;;;;;29.95;22.33;;;;;;;;;;5050920;28;20442;-68
2022/03/23 09:30:22;;;;;;;31.67;22.42;;;;;;;;;;5050351;28;20212;-68
2022/03/23 09:32:47;;;;;;;30.13;21.70;;;;;;;;;;5052511;28;20209;-68
2022/03/23 09:35:13;;;;;;;24.35;21.48;;;;;;;;;;5047234;28;20364;-68
2022/03/23 09:37:47;;;;;;;26.58;21.15;;;;;;;;;;5047475;28;20252;-68
2022/03/23 09:40:20;;;;;;;30.55;21.90;;;;;;;;;;5044622;28;20188;-68
2022/03/23 09:42:46;;;;;;;28.77;22.45;;;;;;;;;;5052015;28;20211;-68
2022/03/23 09:45:19;;;;;;;33.40;21.35;;;;;;;;;;5047135;28;20193;-69
2022/03/23 09:47:44;;;;;;;28.15;22.63;;;;;;;;;;5052483;28;20197;-68
2022/03/23 09:50:09;;;;;;;30.80;21.97;;;;;;;;;;5044257;28;20185;-68
2022/03/23 09:52:35;;;;;;;31.27;21.95;;;;;;;;;;5045117;28;20847;-68
2022/03/23 09:55:00;;;;;;;27.77;22.02;;;;;;;;;;5046919;28;20174;-68
2022/03/23 09:57:26;;;;;;;27.50;22.60;;;;;;;;;;5047837;28;20217;-68
2022/03/23 09:59:51;;;;;;;27.43;22.00;;;;;;;;;;5049368;28;20236;-68
2022/03/23 10:02:22;;;;;;;30.93;24.00;;;;;;;;;;5048219;28;20912;-68
2022/03/23 10:05:17;;;;;;;30.23;22.35;;;;;;;;;;5045509;28;20414;-68
2022/03/23 10:07:51;;;;;;;27.73;21.73;;;;;;;;;;5038197;28;20602;-68
2022/03/23 10:10:19;;;;;;;33.08;23.13;;;;;;;;;;5035512;28;20215;-68
2022/03/23 10:12:50;;;;;;;28.17;23.15;;;;;;;;;;5051063;28;20235;-68
2022/03/23 10:15:34;;;;;;;26.20;21.80;;;;;;;;;;5046583;28;20716;-68
2022/03/23 10:18:18;;;;;;;27.30;22.13;;;;;;;;;;5049580;28;20709;-68
2022/03/23 10:20:43;;;;;;;28.42;22.10;;;;;;;;;;5050318;28;20178;-68
2022/03/23 10:23:08;;;;;;;32.90;23.27;;;;;;;;;;5053859;28;20655;-68
2022/03/23 10:25:33;;;;;;;26.83;21.73;;;;;;;;;;5050738;28;20406;-68
2022/03/23 10:27:59;;;;;;;31.67;22.58;;;;;;;;;;5051784;28;20288;-68
2022/03/23 10:30:34;;;;;;;24.48;20.88;;;;;;;;;;5052178;28;20270;-68
2022/03/23 10:32:59;;;;;;;27.20;21.15;;;;;;;;;;5050239;28;20198;-69
2022/03/23 10:35:34;;;;;;;29.53;22.47;;;;;;;;;;5050516;28;20260;-68
2022/03/23 10:38:08;;;;;;;30.10;22.88;;;;;;;;;;5065200;28;20465;-69
2022/03/23 10:40:33;;;;;;;32.58;23.02;;;;;;;;;;5049566;28;20204;-68
2022/03/23 10:42:59;;;;;;;29.73;22.23;;;;;;;;;;5051039;28;20766;-68
2022/03/23 10:45:24;;;;;;;28.60;22.33;;;;;;;;;;5050557;28;20256;-68
2022/03/23 10:47:49;;;;;;;26.75;23.00;;;;;;;;;;5050035;28;20442;-68
2022/03/23 10:50:23;;;;;;;27.38;22.75;;;;;;;;;;5049504;28;20189;-69
2022/03/23 10:52:48;;;;;;;33.10;23.90;;;;;;;;;;5046689;28;20778;-68
2022/03/23 10:55:13;;;;;;;35.50;25.13;;;;;;;;;;5048736;28;20208;-68
2022/03/23 10:57:51;;;;;;;27.02;23.80;;;;;;;;;;5047481;28;20214;-68
2022/03/23 11:00:17;;;;;;;27.27;22.45;;;;;;;;;;5050653;28;20192;-67
2022/03/23 11:02:46;;;;;;;28.67;22.25;;;;;;;;;;5050011;28;20176;-67
2022/03/23 11:05:13;;;;;;;27.63;22.63;;;;;;;;;;5050142;28;20269;-67
2022/03/23 11:07:40;;;;;;;26.92;21.30;;;;;;;;;;5047417;28;20248;-67
2022/03/23 11:15:47;;;;;;;30.45;23.30;;;;;;;;;;5049690;28;20191;-67
2022/03/23 11:18:16;;;;;;;31.13;22.50;;;;;;;;;;5050829;28;20212;-67
2022/03/23 11:20:41;;;;;;;27.20;23.30;;;;;;;;;;5050055;28;20264;-67
2022/03/23 11:23:15;;;;;;;31.65;23.63;;;;;;;;;;5046398;28;20796;-67
2022/03/23 11:25:40;;;;;;;32.15;23.85;;;;;;;;;;5050554;28;20234;-67
2022/03/23 11:28:05;;;;;;;29.03;22.53;;;;;;;;;;5045610;28;20667;-68
2022/03/23 11:30:30;;;;;;;30.17;23.00;;;;;;;;;;5048711;28;20434;-67
2022/03/23 11:32:56;;;;;;;25.25;21.35;;;;;;;;;;5042582;28;20185;-67
2022/03/23 11:35:22;;;;;;;26.45;21.85;;;;;;;;;;5048274;28;20688;-67
2022/03/23 11:37:47;;;;;;;28.48;20.38;;;;;;;;;;5048994;28;20714;-69
2022/03/23 11:40:13;;;;;;;32.05;22.33;;;;;;;;;;5047577;28;20182;-67
2022/03/23 11:42:38;;;;;;;28.40;21.98;;;;;;;;;;5048552;28;20360;-67
2022/03/23 11:45:04;;;;;;;25.98;20.17;;;;;;;;;;5048836;28;20174;-68
2022/03/23 11:47:35;;;;;;;25.75;21.83;;;;;;;;;;5042064;28;20189;-68
2022/03/23 11:50:19;;;;;;;28.67;22.25;;;;;;;;;;5049442;28;20663;-68
2022/03/23 11:53:03;;;;;;;26.00;21.90;;;;;;;;;;5048011;28;20336;-68
2022/03/23 11:55:37;;;;;;;30.48;23.00;;;;;;;;;;5047863;28;20252;-68
2022/03/23 11:58:21;;;;;;;33.42;24.25;;;;;;;;;;5049003;28;20296;-68
2022/03/23 12:00:54;;;;;;;29.52;24.65;;;;;;;;;;5045499;28;20223;-68
2022/03/23 12:03:38;;;;;;;29.45;23.27;;;;;;;;;;5044075;28;20182;-68
2022/03/23 12:06:10;;;;;;;31.80;23.50;;;;;;;;;;5043015;28;20228;-67
2022/03/23 12:08:57;;;;;;;31.92;23.20;;;;;;;;;;5045584;28;20274;-68
2022/03/23 12:11:31;;;;;;;30.27;22.42;;;;;;;;;;5047758;28;20507;-68
2022/03/23 12:14:00;;;;;;;25.88;21.10;;;;;;;;;;5035595;28;20252;-68
2022/03/23 12:16:58;;;;;;;29.77;21.98;;;;;;;;;;5050145;28;20264;-68
2022/03/23 12:19:24;;;;;;;27.55;21.65;;;;;;;;;;5021567;28;20194;-68
2022/03/23 12:21:55;;;;;;;28.38;23.65;;;;;;;;;;5048459;28;20170;-68
2022/03/23 12:24:37;;;;;;;29.73;22.40;;;;;;;;;;5050235;28;20189;-68
2022/03/23 12:27:06;;;;;;;29.55;23.25;;;;;;;;;;5052754;28;20354;-68
2022/03/23 12:29:35;;;;;;;26.42;22.63;;;;;;;;;;5051110;28;20190;-68
2022/03/23 12:32:05;;;;;;;25.75;21.13;;;;;;;;;;5053142;28;20655;-68
2022/03/23 12:34:31;;;;;;;28.20;22.42;;;;;;;;;;5052796;28;20648;-68
2022/03/23 12:37:06;;;;;;;26.30;22.15;;;;;;;;;;5050409;28;20308;-68
2022/03/23 12:39:31;;;;;;;28.55;23.35;;;;;;;;;;5054332;28;20181;-67
2022/03/23 12:41:57;;;;;;;29.20;23.45;;;;;;;;;;5053478;28;20553;-68
2022/03/23 12:44:30;;;;;;;24.25;20.40;;;;;;;;;;5052730;28;20272;-68
2022/03/23 12:46:55;;;;;;;27.15;21.92;;;;;;;;;;5052426;28;20583;-68
2022/03/23 12:57:53;;;;;;;30.38;22.67;;;;;;;;;;5050859;28;20315;-68
2022/03/23 13:00:25;;;;;;;25.80;21.02;;;;;;;;;;5051388;28;20615;-68
2022/03/23 13:03:19;;;;;;;28.45;21.77;;;;;;;;;;5046333;28;20257;-68
2022/03/23 13:05:54;;;;;;;26.30;21.90;;;;;;;;;;5011967;28;20187;-68
2022/03/23 13:08:33;;;;;;;27.55;21.80;;;;;;;;;;5053747;28;20211;-68
2022/03/23 13:10:59;;;;;;;26.80;21.20;;;;;;;;;;5051110;28;20532;-68
2022/03/23 13:13:25;;;;;;;24.75;19.70;;;;;;;;;;5052024;28;20178;-68
2022/03/23 13:15:50;;;;;;;27.15;21.45;;;;;;;;;;5033248;28;20174;-68
2022/03/23 13:18:16;;;;;;;26.70;21.65;;;;;;;;;;5044873;28;20217;-67
2022/03/23 13:20:49;;;;;;;29.20;22.25;;;;;;;;;;5057386;28;20169;-68
2022/03/23 13:23:17;;;;;;;29.90;22.42;;;;;;;;;;5053546;28;20177;-67
2022/03/23 13:25:42;;;;;;;27.95;21.85;;;;;;;;;;5052364;28;20170;-67
2022/03/23 13:28:14;;;;;;;25.67;20.60;;;;;;;;;;5051018;28;20203;-67
2022/03/23 13:30:40;;;;;;;24.67;20.27;;;;;;;;;;5053007;28;20410;-68
2022/03/23 13:33:15;;;;;;;23.45;20.98;;;;;;;;;;5049098;28;20216;-68
2022/03/23 13:35:43;;;;;;;24.70;17.40;;;;;;;;;;5046281;28;20209;-68
2022/03/23 13:38:09;;;;;;;20.40;18.15;;;;;;;;;;5047781;28;20233;-67
2022/03/23 13:43:22;;;;;;;19.50;17.40;;;;;;;;;;5048259;28;20490;-67
2022/03/23 13:45:48;;;;;;;18.88;16.77;;;;;;;;;;5053169;28;20170;-67
2022/03/23 13:48:14;;;;;;;19.63;17.40;;;;;;;;;;5051520;28;20785;-67
2022/03/23 13:50:48;;;;;;;21.13;16.73;;;;;;;;;;5050917;28;20260;-68
2022/03/23 13:53:14;;;;;;;17.92;16.02;;;;;;;;;;5046770;28;20203;-67
2022/03/23 13:55:44;;;;;;;19.00;16.83;;;;;;;;;;5043514;28;20211;-67
2022/03/23 13:58:10;;;;;;;22.40;16.75;;;;;;;;;;5052020;28;20236;-67
2022/03/23 14:00:35;;;;;;;21.35;18.67;;;;;;;;;;5044511;28;20206;-68
2022/03/23 14:03:01;;;;;;;24.05;18.50;;;;;;;;;;5050256;28;20181;-67
2022/03/23 14:05:28;;;;;;;22.07;19.60;;;;;;;;;;5045067;28;20207;-67
2022/03/23 14:07:55;;;;;;;21.83;16.75;;;;;;;;;;5046615;28;20485;-67
2022/03/23 14:10:25;;;;;;;16.98;15.18;;;;;;;;;;5051342;28;20181;-67
2022/03/23 14:12:51;;;;;;;20.55;16.48;;;;;;;;;;5051369;28;20188;-67
2022/03/23 14:15:16;;;;;;;22.77;17.35;;;;;;;;;;5048958;28;20185;-68
2022/03/23 14:17:42;;;;;;;24.98;19.58;;;;;;;;;;5049550;28;20218;-67
2022/03/23 14:20:08;;;;;;;20.90;18.35;;;;;;;;;;5050642;28;20196;-68
2022/03/23 14:22:33;;;;;;;20.38;17.73;;;;;;;;;;5052556;28;20738;-67
2022/03/23 14:24:58;;;;;;;21.83;17.48;;;;;;;;;;5050213;28;20178;-67
2022/03/23 14:27:34;;;;;;;20.30;17.55;;;;;;;;;;5052014;28;20200;-68
2022/03/23 14:32:28;;;;;;;19.80;16.40;;;;;;;;;;5047464;28;20195;-66
2022/03/23 14:34:53;;;;;;;17.67;15.88;;;;;;;;;;5049339;28;20174;-67
2022/03/23 14:37:19;;;;;;;17.83;15.45;;;;;;;;;;5048692;28;20221;-67
2022/03/23 14:39:45;;;;;;;18.15;15.45;;;;;;;;;;5049331;28;20205;-68
2022/03/23 14:42:11;;;;;;;19.77;17.33;;;;;;;;;;5047931;28;20227;-67
2022/03/23 14:44:38;;;;;;;17.33;15.32;;;;;;;;;;5050317;28;20174;-67